Time;durP1;ratioP1;P1;durP2;ratioP2;P2;SDS_P1;SDS_P2;PMS_P1;PMS_P2;Temp;Humidity;BMP_temperature;BMP_pressure;BME280_temperature;BME280_humidity;BME280_pressure;Samples;Min_cycle;Max_cycle;Signal;HPM_P1;HPM_P2
2023/10/18 00:01:30;;;;;;;13.23;9.55;;;;;;;5.45;100.00;101459.53;6218189;23;20025;-80
2023/10/18 00:03:58;;;;;;;14.07;9.85;;;;;;;5.44;100.00;101458.03;6219189;23;20041;-80
2023/10/18 00:06:26;;;;;;;14.85;9.85;;;;;;;5.44;100.00;101460.69;6191682;23;20475;-80
2023/10/18 00:08:58;;;;;;;12.27;9.65;;;;;;;5.43;100.00;101453.16;6220027;23;20818;-80
2023/10/18 00:11:25;;;;;;;14.57;10.45;;;;;;;5.41;100.00;101448.25;6192686;23;20021;-80
2023/10/18 00:13:53;;;;;;;16.27;9.90;;;;;;;5.38;100.00;101449.03;6219989;23;20466;-80
2023/10/18 00:16:24;;;;;;;16.25;9.98;;;;;;;5.38;100.00;101445.63;6219313;23;20455;-80
2023/10/18 00:18:50;;;;;;;15.15;10.43;;;;;;;5.39;100.00;101449.78;6220265;23;20024;-80
2023/10/18 00:21:17;;;;;;;12.98;9.77;;;;;;;5.38;100.00;101445.63;6219082;23;20013;-80
2023/10/18 00:23:46;;;;;;;15.82;9.93;;;;;;;5.37;100.00;101442.22;6219713;23;20021;-80
2023/10/18 00:26:13;;;;;;;12.77;9.68;;;;;;;5.37;100.00;101439.59;6219593;23;20048;-79
2023/10/18 00:28:43;;;;;;;14.30;10.75;;;;;;;5.35;100.00;101447.91;6193023;23;20028;-80
2023/10/18 00:31:17;;;;;;;13.50;9.57;;;;;;;5.35;100.00;101434.69;6219425;23;20060;-80
2023/10/18 00:33:45;;;;;;;16.13;10.02;;;;;;;5.36;100.00;101446.75;6193155;23;20023;-80
2023/10/18 00:36:16;;;;;;;14.45;9.35;;;;;;;5.35;100.00;101428.66;6218949;23;20080;-80
2023/10/18 00:38:46;;;;;;;13.45;10.43;;;;;;;5.35;100.00;101429.41;6192922;23;20028;-80
2023/10/18 00:41:21;;;;;;;12.98;9.45;;;;;;;5.34;100.00;101424.53;6219678;23;20013;-80
2023/10/18 00:43:52;;;;;;;11.77;9.77;;;;;;;5.34;100.00;101429.81;6193150;23;20018;-80
2023/10/18 00:46:20;;;;;;;14.30;10.55;;;;;;;5.32;100.00;101422.25;6219015;23;20024;-80
2023/10/18 00:48:47;;;;;;;15.10;10.60;;;;;;;5.33;100.00;101428.31;6219631;23;20017;-80
2023/10/18 00:51:24;;;;;;;14.27;10.35;;;;;;;5.33;100.00;101425.66;6191864;23;20518;-80
2023/10/18 00:53:51;;;;;;;11.27;9.02;;;;;;;5.32;100.00;101427.53;6219897;23;20017;-80
2023/10/18 00:56:18;;;;;;;13.27;9.80;;;;;;;5.32;100.00;101424.16;6192802;23;20438;-80
2023/10/18 00:58:45;;;;;;;13.95;10.07;;;;;;;5.31;100.00;101420.75;6219863;23;20013;-80
2023/10/18 01:01:12;;;;;;;14.73;9.85;;;;;;;5.31;100.00;101422.66;6219171;23;20351;-80
2023/10/18 01:03:49;;;;;;;13.05;9.77;;;;;;;5.29;100.00;101411.72;6217800;23;20026;-80
2023/10/18 01:06:21;;;;;;;11.63;9.25;;;;;;;5.29;100.00;101412.47;6192724;23;20017;-80
2023/10/18 01:08:49;;;;;;;13.65;9.82;;;;;;;5.28;100.00;101405.69;6219523;23;20017;-80
2023/10/18 01:11:30;;;;;;;14.93;10.60;;;;;;;5.28;100.00;101399.66;6218927;23;20013;-80
2023/10/18 01:14:00;;;;;;;13.90;10.80;;;;;;;5.24;100.00;101394.41;6192715;23;20848;-80
2023/10/18 01:16:31;;;;;;;16.20;10.70;;;;;;;5.24;100.00;101402.31;6166749;23;20459;-80
2023/10/18 01:18:58;;;;;;;15.88;10.43;;;;;;;5.22;100.00;101401.19;6192455;23;20020;-80
2023/10/18 01:21:25;;;;;;;14.70;10.82;;;;;;;5.22;100.00;101393.28;6191800;23;20033;-80
2023/10/18 01:23:54;;;;;;;18.70;10.43;;;;;;;5.20;100.00;101382.38;6192661;23;20494;-80
2023/10/18 01:26:29;;;;;;;15.05;10.45;;;;;;;5.19;100.00;101386.16;6192328;23;20017;-79
2023/10/18 01:28:57;;;;;;;14.80;9.55;;;;;;;5.19;100.00;101386.16;6192700;23;20045;-80
2023/10/18 01:31:24;;;;;;;15.27;10.65;;;;;;;5.18;100.00;101388.06;6217109;23;20028;-80
2023/10/18 01:33:51;;;;;;;15.43;10.75;;;;;;;5.18;100.00;101382.03;6192001;23;20021;-80
2023/10/18 01:36:21;;;;;;;13.05;10.45;;;;;;;5.17;100.00;101380.53;6218964;23;20455;-80
2023/10/18 01:38:51;;;;;;;15.13;10.38;;;;;;;5.16;100.00;101368.47;6219618;23;20045;-80
2023/10/18 01:41:37;;;;;;;16.85;10.80;;;;;;;5.16;100.00;101365.81;6219229;23;20481;-81
2023/10/18 01:44:08;;;;;;;14.02;10.20;;;;;;;5.14;100.00;101365.44;6219646;23;20013;-81
2023/10/18 01:46:52;;;;;;;16.83;10.77;;;;;;;5.13;100.00;101364.69;6192748;23;20330;-81
2023/10/18 01:49:21;;;;;;;12.20;9.57;;;;;;;5.12;100.00;101363.19;6218259;23;20021;-81
2023/10/18 01:51:52;;;;;;;13.48;9.93;;;;;;;5.13;100.00;101372.63;6219410;23;20417;-81
2023/10/18 01:54:20;;;;;;;16.60;10.75;;;;;;;5.12;100.00;101371.13;6218933;23;20013;-81
2023/10/18 01:56:46;;;;;;;14.93;10.77;;;;;;;5.12;100.00;101357.16;6192470;23;20021;-80
2023/10/18 01:59:14;;;;;;;18.17;10.02;;;;;;;5.12;100.00;101368.47;6192540;23;20024;-80
2023/10/18 02:01:44;;;;;;;15.57;10.68;;;;;;;5.11;100.00;101356.41;6167516;23;20017;-81
2023/10/18 02:04:23;;;;;;;14.77;10.02;;;;;;;5.11;100.00;101358.31;6191374;23;20048;-80
2023/10/18 02:07:10;;;;;;;13.63;9.70;;;;;;;5.10;100.00;101357.56;6171612;23;20021;-80
2023/10/18 02:09:49;;;;;;;15.80;9.93;;;;;;;5.09;100.00;101353.41;6191866;23;20530;-81
2023/10/18 02:12:19;;;;;;;16.02;9.82;;;;;;;5.09;100.00;101356.06;6192251;23;20451;-81
2023/10/18 02:14:51;;;;;;;17.77;10.13;;;;;;;5.09;100.00;101356.06;6192373;23;20475;-81
2023/10/18 02:17:18;;;;;;;17.77;10.43;;;;;;;5.08;100.00;101348.53;6191303;23;20056;-81
2023/10/18 02:19:46;;;;;;;14.30;9.73;;;;;;;5.08;100.00;101345.88;6219637;23;20017;-81
2023/10/18 02:22:13;;;;;;;16.55;10.57;;;;;;;5.07;100.00;101341.75;6192528;23;20017;-81
2023/10/18 02:24:42;;;;;;;15.27;9.95;;;;;;;5.07;100.00;101349.66;6219047;23;20064;-81
2023/10/18 02:27:15;;;;;;;13.65;9.40;;;;;;;5.06;100.00;101350.78;6191784;23;20111;-81
2023/10/18 02:29:44;;;;;;;11.55;9.40;;;;;;;5.04;100.00;101348.53;6216798;23;20025;-81
2023/10/18 02:32:34;;;;;;;12.35;9.70;;;;;;;5.03;100.00;101331.94;6191520;23;20455;-80
2023/10/18 02:34:59;;;;;;;15.50;9.90;;;;;;;5.02;100.00;101340.25;6219390;23;20018;-81
2023/10/18 02:37:26;;;;;;;13.35;9.65;;;;;;;5.02;100.00;101337.63;6218413;23;20836;-80
2023/10/18 02:40:07;;;;;;;14.32;9.85;;;;;;;5.01;100.00;101336.88;6219389;23;20017;-80
2023/10/18 02:42:35;;;;;;;12.05;9.55;;;;;;;4.99;100.00;101333.84;6192238;23;20017;-80
2023/10/18 02:45:07;;;;;;;16.88;10.23;;;;;;;4.99;100.00;101333.84;6192546;23;20045;-80
2023/10/18 02:47:34;;;;;;;15.00;9.88;;;;;;;4.98;100.00;101319.16;6218386;23;20412;-81
2023/10/18 02:50:01;;;;;;;18.08;10.57;;;;;;;4.98;100.00;101315.78;6219225;23;20021;-81
2023/10/18 02:52:30;;;;;;;11.43;9.23;;;;;;;4.96;100.00;101310.88;6218463;23;20020;-81
2023/10/18 02:54:57;;;;;;;14.20;9.77;;;;;;;4.96;100.00;101305.59;6219250;23;20538;-78
2023/10/18 02:57:24;;;;;;;16.25;9.82;;;;;;;4.97;100.00;101304.47;6191365;23;20021;-79
2023/10/18 02:59:51;;;;;;;13.05;9.75;;;;;;;4.96;100.00;101300.31;6192192;23;20526;-79
2023/10/18 03:02:24;;;;;;;13.55;9.80;;;;;;;4.95;100.00;101290.16;6218447;23;20017;-79
2023/10/18 03:04:52;;;;;;;13.48;10.15;;;;;;;4.94;100.00;101286.78;6219411;23;20080;-79
2023/10/18 03:07:21;;;;;;;13.65;9.75;;;;;;;4.95;100.00;101277.72;6191148;23;20032;-79
2023/10/18 03:09:51;;;;;;;12.38;9.68;;;;;;;4.94;100.00;101270.19;6191929;23;20114;-79
2023/10/18 03:12:21;;;;;;;16.55;9.95;;;;;;;4.92;100.00;101257.38;6191868;23;20044;-79
2023/10/18 03:14:55;;;;;;;15.45;9.85;;;;;;;4.92;100.00;101259.28;6191961;23;20044;-79
2023/10/18 03:17:23;;;;;;;13.57;10.20;;;;;;;4.91;100.00;101247.97;6191586;23;20111;-79
2023/10/18 03:19:54;;;;;;;12.80;10.02;;;;;;;4.91;100.00;101247.22;6192137;23;20051;-79
2023/10/18 03:22:22;;;;;;;17.55;10.85;;;;;;;4.91;100.00;101245.31;6218240;23;20017;-79
2023/10/18 03:24:55;;;;;;;16.08;10.07;;;;;;;4.90;100.00;101254.38;6218813;23;20084;-79
2023/10/18 03:27:33;;;;;;;15.70;10.18;;;;;;;4.91;100.00;101255.88;6218195;23;20039;-79
2023/10/18 03:30:17;;;;;;;17.25;10.02;;;;;;;4.90;100.00;101256.25;6218249;23;20076;-79
2023/10/18 03:32:50;;;;;;;14.95;10.70;;;;;;;4.90;100.00;101256.25;6218837;23;20017;-79
2023/10/18 03:35:21;;;;;;;16.42;10.13;;;;;;;4.89;100.00;101254.75;6192116;23;20013;-79
2023/10/18 03:37:48;;;;;;;14.48;10.05;;;;;;;4.89;100.00;101260.78;6218765;23;20096;-79
2023/10/18 03:40:20;;;;;;;14.70;9.93;;;;;;;4.89;100.00;101257.41;6191609;23;20020;-79
2023/10/18 03:42:52;;;;;;;14.80;9.93;;;;;;;4.89;100.00;101244.97;6192117;23;20017;-79
2023/10/18 03:45:22;;;;;;;14.60;10.45;;;;;;;4.88;100.00;101248.75;6217734;23;20017;-79
2023/10/18 03:48:01;;;;;;;18.08;10.52;;;;;;;4.86;100.00;101245.72;6191708;23;20431;-79
2023/10/18 03:50:38;;;;;;;13.68;10.32;;;;;;;4.85;100.00;101235.56;6218335;23;20403;-79
2023/10/18 03:53:07;;;;;;;13.35;10.07;;;;;;;4.83;100.00;101225.41;6192288;23;20021;-79
2023/10/18 03:55:39;;;;;;;20.17;10.80;;;;;;;4.83;100.00;101233.31;6191842;23;20043;-79
2023/10/18 03:58:06;;;;;;;14.55;10.18;;;;;;;4.82;100.00;101226.53;6193318;23;20020;-79
2023/10/18 04:00:43;;;;;;;16.00;10.50;;;;;;;4.81;100.00;101232.94;6218972;23;20013;-79
2023/10/18 04:03:12;;;;;;;16.02;10.93;;;;;;;4.79;100.00;101222.06;6218732;23;20017;-79
2023/10/18 04:05:44;;;;;;;16.00;10.80;;;;;;;4.79;100.00;101213.41;6218457;23;20048;-79
2023/10/18 04:08:18;;;;;;;17.60;11.30;;;;;;;4.77;100.00;101203.25;6191271;23;20021;-78
2023/10/18 04:10:54;;;;;;;17.13;10.23;;;;;;;4.77;100.00;101205.88;6218705;23;20019;-79
2023/10/18 04:13:24;;;;;;;17.83;10.25;;;;;;;4.76;100.00;101198.34;6217109;23;20406;-79
2023/10/18 04:15:59;;;;;;;18.52;10.63;;;;;;;4.76;100.00;101198.34;6218585;23;20024;-79
2023/10/18 04:18:29;;;;;;;18.60;11.43;;;;;;;4.75;100.00;101183.66;6217940;23;20092;-79
2023/10/18 04:20:59;;;;;;;14.77;10.38;;;;;;;4.73;100.00;101178.78;6191864;23;20088;-79
2023/10/18 04:23:26;;;;;;;15.07;10.88;;;;;;;4.73;100.00;101183.28;6217769;23;20020;-79
2023/10/18 04:26:10;;;;;;;21.52;11.30;;;;;;;4.72;100.00;101181.78;6166898;23;20072;-79
2023/10/18 04:28:38;;;;;;;15.25;10.70;;;;;;;4.71;100.00;101175.03;6217343;23;20021;-79
2023/10/18 04:31:08;;;;;;;17.15;11.18;;;;;;;4.70;100.00;101174.28;6218420;23;20017;-79
2023/10/18 04:33:36;;;;;;;15.35;11.52;;;;;;;4.69;100.00;101165.59;6218327;23;20117;-79
2023/10/18 04:36:11;;;;;;;16.75;10.82;;;;;;;4.67;100.00;101159.97;6218207;23;20427;-79
2023/10/18 04:38:44;;;;;;;17.48;11.10;;;;;;;4.67;100.00;101167.13;6217878;23;20399;-79
2023/10/18 04:41:23;;;;;;;15.68;9.95;;;;;;;4.68;100.00;101163.34;6217659;23;20017;-79
2023/10/18 04:43:51;;;;;;;18.85;10.93;;;;;;;4.67;100.00;101161.84;6191044;23;20017;-79
2023/10/18 04:46:26;;;;;;;17.40;11.13;;;;;;;4.67;100.00;101151.31;6217650;23;20013;-80
2023/10/18 04:51:26;;;;;;;19.52;11.38;;;;;;;4.65;100.00;101149.06;6190984;23;20017;-80
2023/10/18 04:53:57;;;;;;;14.80;10.55;;;;;;;4.66;100.00;101140.00;6219868;23;20096;-80
2023/10/18 05:02:25;;;;;;;17.73;10.55;;;;;;;4.65;100.00;101124.56;6205248;23;20078;-80
2023/10/18 05:04:54;;;;;;;17.48;9.80;;;;;;;4.64;100.00;101126.47;6192954;23;20024;-79
2023/10/18 05:07:38;;;;;;;21.05;11.70;;;;;;;4.66;100.00;101126.06;6192303;23;20324;-79
2023/10/18 05:10:28;;;;;;;16.40;9.57;;;;;;;4.65;100.00;101120.06;6219221;23;20656;-80
2023/10/18 05:13:01;;;;;;;13.65;10.30;;;;;;;4.63;100.00;101113.66;6218884;23;20079;-80
2023/10/18 05:15:32;;;;;;;14.10;10.38;;;;;;;4.64;100.00;101109.88;6218795;23;20017;-80
2023/10/18 05:18:04;;;;;;;18.50;11.50;;;;;;;4.63;100.00;101109.13;6193118;23;20439;-79
2023/10/18 05:20:56;;;;;;;15.95;9.85;;;;;;;4.62;100.00;101109.53;6219362;23;20021;-79
2023/10/18 05:23:24;;;;;;;12.55;9.38;;;;;;;4.62;100.00;101105.00;6219248;23;20092;-80
2023/10/18 05:31:43;;;;;;;14.70;9.52;;;;;;;4.60;100.00;101096.72;6219172;23;20021;-80
2023/10/18 05:41:59;;;;;;;12.95;9.75;;;;;;;4.60;100.00;101083.53;6219201;23;20060;-77
2023/10/18 05:44:29;;;;;;;16.27;10.35;;;;;;;4.61;100.00;101089.56;6218695;23;20911;-77
2023/10/18 05:46:57;;;;;;;16.23;10.13;;;;;;;4.60;100.00;101083.53;6219471;23;20447;-78
2023/10/18 05:49:23;;;;;;;10.88;8.90;;;;;;;4.60;100.00;101078.28;6192149;23;20017;-79
2023/10/18 05:54:37;;;;;;;14.48;9.25;;;;;;;4.60;100.00;101082.78;6218797;23;19920;-78
2023/10/18 05:57:07;;;;;;;12.93;9.77;;;;;;;4.60;100.00;101082.78;6219348;23;20093;-78
2023/10/18 05:59:34;;;;;;;13.55;9.10;;;;;;;4.61;100.00;101076.38;6218954;23;20068;-79
2023/10/18 06:02:01;;;;;;;14.30;9.55;;;;;;;4.61;100.00;101081.66;6219225;23;20105;-77
2023/10/18 06:04:33;;;;;;;14.23;10.32;;;;;;;4.60;100.00;101083.53;6217918;23;20021;-78
2023/10/18 06:07:09;;;;;;;11.73;9.00;;;;;;;4.61;100.00;101076.38;6219449;23;20432;-77
2023/10/18 06:09:57;;;;;;;14.77;10.23;;;;;;;4.62;100.00;101075.25;6218573;23;20379;-78
2023/10/18 06:12:27;;;;;;;12.82;9.32;;;;;;;4.63;100.00;101074.09;6192041;23;20083;-76
2023/10/18 06:14:54;;;;;;;17.02;9.82;;;;;;;4.63;100.00;101068.84;6219103;23;20017;-77
2023/10/18 06:17:26;;;;;;;13.02;9.15;;;;;;;4.63;100.00;101077.50;6218150;23;20044;-76
2023/10/18 06:19:56;;;;;;;13.63;9.35;;;;;;;4.63;100.00;101066.94;6219412;23;20023;-78
2023/10/18 06:22:38;;;;;;;14.13;8.95;;;;;;;4.65;100.00;101064.66;6218499;23;20422;-77
2023/10/18 06:25:09;;;;;;;20.38;9.48;;;;;;;4.66;100.00;101052.22;6218551;23;20511;-80
2023/10/18 06:27:39;;;;;;;15.07;9.60;;;;;;;4.69;100.00;101059.38;6219073;23;20045;-79
2023/10/18 06:30:14;;;;;;;13.25;8.75;;;;;;;4.69;100.00;101049.56;6218743;23;20021;-79
2023/10/18 06:32:43;;;;;;;14.75;9.27;;;;;;;4.71;100.00;101054.44;6192353;23;20095;-80
2023/10/18 06:35:17;;;;;;;14.10;9.30;;;;;;;4.74;100.00;101047.66;6192601;23;20410;-78
2023/10/18 06:37:44;;;;;;;12.25;9.15;;;;;;;4.76;100.00;101048.00;6218873;23;20080;-77
2023/10/18 06:40:21;;;;;;;15.00;9.90;;;;;;;4.77;100.00;101039.69;6191278;23;20021;-79
2023/10/18 06:42:49;;;;;;;12.63;8.95;;;;;;;4.79;100.00;101034.03;6219364;23;20423;-78
2023/10/18 06:45:18;;;;;;;14.30;9.27;;;;;;;4.81;100.00;101037.00;6191984;23;20133;-80
2023/10/18 06:47:45;;;;;;;16.40;9.18;;;;;;;4.82;100.00;101041.13;6219409;23;20041;-79
2023/10/18 06:50:14;;;;;;;14.82;9.38;;;;;;;4.85;100.00;101029.81;6191904;23;20024;-79
2023/10/18 06:52:52;;;;;;;13.70;10.23;;;;;;;4.87;100.00;101019.63;6218672;23;20041;-79
2023/10/18 06:55:21;;;;;;;10.80;8.80;;;;;;;4.90;100.00;101018.81;6218463;23;20024;-79
2023/10/18 06:57:49;;;;;;;14.90;9.38;;;;;;;4.92;100.00;101019.94;6192288;23;20100;-80
2023/10/18 07:00:16;;;;;;;15.25;10.23;;;;;;;4.94;100.00;101009.75;6218866;23;20354;-81
2023/10/18 07:02:44;;;;;;;13.80;9.43;;;;;;;4.97;100.00;101006.31;6192114;23;20017;-77
2023/10/18 07:05:11;;;;;;;12.82;9.18;;;;;;;4.99;100.00;101006.66;6218594;23;20436;-77
2023/10/18 07:07:38;;;;;;;13.02;8.82;;;;;;;5.04;100.00;101002.84;6218060;23;20017;-77
2023/10/18 07:10:07;;;;;;;14.65;9.30;;;;;;;5.07;100.00;100999.44;6218294;23;20017;-75
2023/10/18 07:12:50;;;;;;;13.70;9.15;;;;;;;5.12;100.00;101001.63;6218847;23;20068;-84
2023/10/18 07:15:22;;;;;;;13.15;9.38;;;;;;;5.18;100.00;100988.75;6191582;23;20013;-84
2023/10/18 07:17:52;;;;;;;14.10;8.52;;;;;;;5.22;100.00;100992.06;6192390;23;20411;-83
2023/10/18 07:20:20;;;;;;;13.20;9.05;;;;;;;5.27;100.00;100987.09;6218204;23;20017;-81
2023/10/18 07:22:54;;;;;;;16.55;10.02;;;;;;;5.30;100.00;100982.91;6218126;23;20028;-82
2023/10/18 07:25:26;;;;;;;18.08;8.95;;;;;;;5.36;100.00;100981.34;6217811;23;20130;-82
2023/10/18 07:27:56;;;;;;;12.60;8.13;;;;;;;5.43;100.00;100969.94;6193081;23;20060;-83
2023/10/18 07:30:36;;;;;;;15.95;9.05;;;;;;;5.47;99.91;100968.00;6191710;23;20438;-81
2023/10/18 07:33:09;;;;;;;10.93;9.13;;;;;;;5.53;99.39;100963.78;6218455;23;20025;-79
2023/10/18 07:35:44;;;;;;;13.88;8.80;;;;;;;5.57;98.91;100959.19;6218465;23;20450;-79
2023/10/18 07:38:10;;;;;;;14.98;8.20;;;;;;;5.61;98.46;100963.25;6217674;23;20017;-78
2023/10/18 07:40:41;;;;;;;16.75;8.45;;;;;;;5.66;97.71;100957.53;6218293;23;20022;-80
2023/10/18 07:43:12;;;;;;;16.02;8.70;;;;;;;5.73;97.49;100959.31;6218047;23;20014;-80
2023/10/18 07:45:39;;;;;;;;;;;;;;;5.80;98.09;100951.28;6219168;23;20052;-82
2023/10/18 07:48:06;;;;;;;12.75;7.57;;;;;;;5.85;96.86;100950.09;6218893;23;19975;-81
2023/10/18 07:53:06;;;;;;;10.15;8.18;;;;;;;5.96;95.82;100937.50;6218290;23;20104;-81
2023/10/18 07:55:37;;;;;;;16.50;8.45;;;;;;;6.03;95.56;100937.34;6218224;23;20013;-81
2023/10/18 08:01:09;;;;;;;10.82;8.35;;;;;;;6.15;94.30;100930.75;6218843;23;20445;-79
2023/10/18 08:03:38;;;;;;;12.57;8.20;;;;;;;6.20;94.17;100931.03;6218494;23;20025;-81
2023/10/18 08:06:06;;;;;;;13.05;8.30;;;;;;;6.25;93.72;100930.56;6191563;23;20443;-79
2023/10/18 08:08:36;;;;;;;10.13;8.30;;;;;;;6.34;93.42;100930.78;6218866;23;20035;-87
2023/10/18 08:11:05;;;;;;;9.95;8.43;;;;;;;6.42;93.18;100935.94;6218522;23;20025;-80
2023/10/18 08:13:43;;;;;;;11.00;8.43;;;;;;;6.51;92.93;100928.94;6192530;23;20109;-83
2023/10/18 08:16:10;;;;;;;10.15;7.75;;;;;;;6.58;92.11;100934.13;6218206;23;20244;-75
2023/10/18 08:18:42;;;;;;;12.50;8.77;;;;;;;6.66;92.09;100926.78;6218293;23;20093;-76
2023/10/18 08:23:56;;;;;;;15.57;8.63;;;;;;;6.82;91.47;100926.09;6218465;23;20479;-77
2023/10/18 08:26:26;;;;;;;9.77;7.57;;;;;;;6.86;91.17;100929.41;6191018;23;20017;-77
2023/10/18 08:28:53;;;;;;;8.35;7.53;;;;;;;6.91;90.77;100929.69;6193483;23;20041;-77
2023/10/18 08:31:33;;;;;;;15.50;8.30;;;;;;;6.94;90.75;100920.94;6219053;23;20051;-76
2023/10/18 08:34:15;;;;;;;11.25;7.93;;;;;;;7.03;89.83;100913.19;6192352;23;20021;-76
2023/10/18 08:36:43;;;;;;;9.02;8.10;;;;;;;7.13;89.53;100921.31;6219755;23;20068;-76
2023/10/18 08:39:10;;;;;;;13.05;8.07;;;;;;;7.20;88.98;100918.50;6192578;23;20033;-83
2023/10/18 08:41:50;;;;;;;11.23;8.20;;;;;;;7.30;88.86;100912.22;6192696;23;20017;-85
2023/10/18 08:44:27;;;;;;;11.40;7.35;;;;;;;7.36;88.01;100911.34;6193020;23;20360;-85
2023/10/18 08:47:03;;;;;;;8.65;7.75;;;;;;;7.47;87.93;100918.31;6193034;23;20072;-84
2023/10/18 08:49:33;;;;;;;11.85;7.55;;;;;;;7.57;87.13;100912.03;6191928;23;20017;-84
2023/10/18 08:52:08;;;;;;;8.52;7.30;;;;;;;7.67;86.79;100906.44;6192901;23;20017;-76
2023/10/18 08:54:39;;;;;;;10.43;7.63;;;;;;;7.79;86.31;100907.69;6192596;23;20017;-78
2023/10/18 08:57:11;;;;;;;8.32;6.85;;;;;;;7.83;86.10;100905.69;6219458;23;20013;-77
2023/10/18 08:59:48;;;;;;;8.30;6.97;;;;;;;7.89;85.65;100901.38;6219553;23;20096;-77
2023/10/18 09:04:51;;;;;;;8.25;7.18;;;;;;;8.10;85.32;100905.41;6218694;23;20040;-78
2023/10/18 09:07:22;;;;;;;8.35;6.78;;;;;;;8.21;83.82;100889.22;6219030;23;20021;-78
2023/10/18 09:09:56;;;;;;;7.68;6.72;;;;;;;8.30;83.01;100876.09;6218985;23;20025;-78
2023/10/18 09:13:03;;;;;;;8.75;7.32;;;;;;;8.43;83.04;100870.84;6192276;23;20457;-78
2023/10/18 09:15:27;;;;;;;9.20;7.20;;;;;;;8.51;82.79;100861.53;6191831;23;20025;-77
2023/10/18 09:17:56;;;;;;;11.10;7.13;;;;;;;8.59;82.05;100868.13;6192809;23;20031;-84
2023/10/18 09:20:27;;;;;;;6.82;6.13;;;;;;;8.58;81.92;100867.38;6218833;23;20020;-83
2023/10/18 09:22:53;;;;;;;8.30;6.85;;;;;;;8.62;81.46;100857.41;6192775;23;20522;-85
2023/10/18 09:25:27;;;;;;;7.55;6.75;;;;;;;8.80;81.13;100851.59;6192196;23;20053;-84
2023/10/18 09:28:10;;;;;;;9.13;7.40;;;;;;;8.87;80.08;100843.41;6192768;23;20017;-83
2023/10/18 09:30:37;;;;;;;7.43;6.32;;;;;;;8.90;80.38;100845.22;6192693;23;20075;-82
2023/10/18 09:33:04;;;;;;;9.40;6.93;;;;;;;8.87;79.43;100843.41;6191935;23;20170;-83
2023/10/18 09:35:34;;;;;;;7.55;6.75;;;;;;;8.94;79.56;100834.50;6192677;23;20435;-82
2023/10/18 09:38:03;;;;;;;8.10;6.65;;;;;;;9.06;79.56;100838.31;6192144;23;20526;-82
2023/10/18 09:40:30;;;;;;;10.38;7.00;;;;;;;9.17;79.17;100830.78;6192726;23;20525;-85
2023/10/18 09:42:57;;;;;;;7.90;7.00;;;;;;;9.19;78.87;100823.13;6219665;23;20067;-80
2023/10/18 09:45:24;;;;;;;10.00;7.13;;;;;;;9.21;78.17;100813.53;6217514;23;20044;-77
2023/10/18 09:47:54;;;;;;;8.48;7.47;;;;;;;9.31;78.67;100809.06;6217093;23;20021;-76
2023/10/18 09:50:24;;;;;;;9.38;7.15;;;;;;;9.41;78.65;100807.25;6218241;23;20092;-76
2023/10/18 09:52:56;;;;;;;7.95;7.15;;;;;;;9.47;77.90;100810.84;6219620;23;20036;-76
2023/10/18 09:55:27;;;;;;;8.48;7.07;;;;;;;9.52;77.95;100805.72;6219133;23;20017;-76
2023/10/18 09:58:04;;;;;;;9.93;7.70;;;;;;;9.56;77.64;100808.28;6223859;23;20072;-76
2023/10/18 10:00:42;;;;;;;8.40;6.50;;;;;;;9.60;76.83;100801.63;6219925;23;20024;-75
2023/10/18 10:03:09;;;;;;;8.90;6.07;;;;;;;9.68;76.58;100786.19;6192201;23;20651;-80
2023/10/18 10:05:41;;;;;;;7.18;6.47;;;;;;;9.74;76.14;100783.75;6196126;23;20021;-82
2023/10/18 10:08:09;;;;;;;8.73;7.63;;;;;;;9.80;76.53;100774.78;6219547;23;20020;-82
2023/10/18 10:10:45;;;;;;;11.07;7.80;;;;;;;9.89;76.24;100774.84;6218992;23;20023;-83
2023/10/18 10:13:18;;;;;;;7.45;6.70;;;;;;;9.98;76.30;100752.91;6192672;23;20017;-82
2023/10/18 10:16:03;;;;;;;9.63;7.35;;;;;;;10.12;76.29;100756.94;6218805;23;20092;-76
2023/10/18 10:18:37;;;;;;;11.40;6.40;;;;;;;10.27;74.79;100755.28;6218771;23;20424;-75
2023/10/18 10:21:08;;;;;;;7.60;6.90;;;;;;;10.34;74.39;100753.13;6219503;23;20072;-75
2023/10/18 10:23:38;;;;;;;11.93;6.88;;;;;;;10.40;74.34;100739.94;6219024;23;20024;-77
2023/10/18 10:26:22;;;;;;;6.88;6.18;;;;;;;10.49;74.10;100736.59;6219425;23;20021;-77
2023/10/18 10:31:56;;;;;;;6.53;5.05;;;;;;;10.66;73.26;100743.91;6218061;23;20013;-77
2023/10/18 10:34:32;;;;;;;6.72;6.03;;;;;;;10.71;72.46;100731.94;6218738;23;20013;-76
2023/10/18 10:37:06;;;;;;;6.80;5.95;;;;;;;10.72;72.32;100725.44;6193223;23;20441;-77
2023/10/18 10:42:41;;;;;;;7.22;5.43;;;;;;;10.87;72.36;100709.63;6161359;23;20451;-76
2023/10/18 10:45:30;;;;;;;6.63;5.78;;;;;;;10.93;71.14;100721.19;6191584;23;20029;-76
2023/10/18 10:48:15;;;;;;;6.25;5.75;;;;;;;10.96;71.79;100706.97;6219345;23;20021;-78
2023/10/18 10:50:45;;;;;;;7.70;5.53;;;;;;;10.99;70.06;100698.09;6166751;23;20111;-77
2023/10/18 10:53:29;;;;;;;6.28;5.60;;;;;;;11.03;70.22;100690.72;6219145;23;20110;-79
2023/10/18 10:55:56;;;;;;;6.97;5.43;;;;;;;11.08;69.75;100684.81;6219184;23;20489;-76
2023/10/18 10:58:29;;;;;;;6.85;5.25;;;;;;;11.11;69.61;100673.25;6218771;23;20072;-78
2023/10/18 11:01:04;;;;;;;7.53;5.32;;;;;;;11.18;70.32;100667.63;6191811;23;20029;-77
2023/10/18 11:03:53;;;;;;;5.75;5.22;;;;;;;11.22;70.25;100660.22;6218948;23;20485;-77
2023/10/18 11:06:24;;;;;;;10.07;5.80;;;;;;;11.27;70.11;100645.56;6218321;23;20088;-76
2023/10/18 11:08:54;;;;;;;5.85;5.45;;;;;;;11.30;69.72;100639.34;6219159;23;20470;-77
2023/10/18 11:11:22;;;;;;;8.02;5.18;;;;;;;11.34;69.31;100631.94;6217950;23;20108;-77
2023/10/18 11:13:52;;;;;;;7.60;5.45;;;;;;;11.36;69.20;100638.28;6218566;23;20036;-77
2023/10/18 11:16:22;;;;;;;5.95;5.20;;;;;;;11.40;69.01;100626.75;6218516;23;20013;-77
2023/10/18 11:18:49;;;;;;;7.93;5.40;;;;;;;11.46;69.25;100619.63;6192168;23;20436;-77
2023/10/18 11:21:24;;;;;;;5.82;5.05;;;;;;;11.51;68.84;100611.75;6218914;23;20064;-76
2023/10/18 11:24:04;;;;;;;7.13;4.93;;;;;;;11.54;68.38;100604.81;6219363;23;20056;-76
2023/10/18 11:26:40;;;;;;;6.00;5.18;;;;;;;11.55;68.06;100603.63;6218790;23;20013;-77
2023/10/18 11:29:07;;;;;;;6.47;5.80;;;;;;;11.61;68.09;100596.47;6218067;23;20382;-77
2023/10/18 11:31:38;;;;;;;6.18;5.68;;;;;;;11.69;68.10;100590.38;6191523;23;20037;-77
2023/10/18 11:34:07;;;;;;;6.10;5.50;;;;;;;11.74;68.74;100585.63;6219066;23;20013;-76
2023/10/18 11:36:35;;;;;;;5.93;5.32;;;;;;;11.80;68.20;100586.50;6218550;23;20506;-76
2023/10/18 11:39:18;;;;;;;7.50;5.63;;;;;;;11.81;68.15;100575.38;6219231;23;20399;-77
2023/10/18 11:41:48;;;;;;;7.07;5.70;;;;;;;11.89;68.57;100575.81;6219147;23;20436;-77
2023/10/18 11:44:32;;;;;;;6.10;5.22;;;;;;;11.91;68.55;100563.50;6218051;23;20510;-77
2023/10/18 11:47:20;;;;;;;5.90;5.38;;;;;;;11.93;67.78;100560.38;6218769;23;20019;-77
2023/10/18 11:49:52;;;;;;;5.32;4.82;;;;;;;11.95;67.06;100552.66;6192109;23;20422;-76
2023/10/18 11:52:21;;;;;;;6.85;5.40;;;;;;;12.05;67.79;100548.00;6218470;23;20017;-77
2023/10/18 11:54:52;;;;;;;14.38;5.60;;;;;;;12.11;67.23;100536.25;6218843;23;20087;-76
2023/10/18 11:57:30;;;;;;;6.63;5.80;;;;;;;12.19;67.77;100526.72;6217910;23;20475;-76
2023/10/18 12:00:20;;;;;;;5.70;5.20;;;;;;;12.25;66.82;100522.22;6217292;23;20021;-77
2023/10/18 12:02:45;;;;;;;8.60;5.30;;;;;;;12.24;66.22;100520.75;6220028;23;20013;-77
2023/10/18 12:05:17;;;;;;;8.30;5.60;;;;;;;12.28;66.79;100520.59;6219683;23;20362;-77
2023/10/18 12:07:48;;;;;;;5.47;5.00;;;;;;;12.34;66.58;100516.09;6220149;23;20012;-78
2023/10/18 12:10:17;;;;;;;6.78;5.45;;;;;;;12.34;66.46;100511.50;6192515;23;20017;-77
2023/10/18 12:12:44;;;;;;;7.15;5.90;;;;;;;12.30;66.44;100505.59;6193090;23;20422;-79
2023/10/18 12:15:15;;;;;;;7.15;5.35;;;;;;;12.35;66.57;100486.28;6193299;23;20012;-81
2023/10/18 12:17:42;;;;;;;6.53;5.70;;;;;;;12.43;66.70;100491.97;6193039;23;20112;-77
2023/10/18 12:20:10;;;;;;;6.05;5.28;;;;;;;12.45;66.38;100489.59;6192578;23;20075;-76
2023/10/18 12:22:37;;;;;;;7.18;4.88;;;;;;;12.47;67.05;100491.81;6219603;23;20017;-76